Time;durP1;ratioP1;P1;durP2;ratioP2;P2;SDS_P1;SDS_P2;PMS_P1;PMS_P2;Temp;Humidity;BMP_temperature;BMP_pressure;BME280_temperature;BME280_humidity;BME280_pressure;Samples;Min_cycle;Max_cycle;Signal;HPM_P1;HPM_P2
2020/12/28 00:00:56;;;;;;;12.53;5.77;;;;;;;;;;5023249;28;20272;-80
2020/12/28 00:03:22;;;;;;;9.10;4.50;;;;;;;;;;5009675;28;20297;-80
2020/12/28 00:05:48;;;;;;;7.63;3.47;;;;;;;;;;5003994;28;20270;-81
2020/12/28 00:08:14;;;;;;;7.70;2.97;;;;;;;;;;5002683;28;20676;-79
2020/12/28 00:10:41;;;;;;;8.13;3.13;;;;;;;;;;5009562;28;20288;-80
2020/12/28 00:13:07;;;;;;;9.50;3.87;;;;;;;;;;5026810;28;20290;-80
2020/12/28 00:15:33;;;;;;;7.23;3.37;;;;;;;;;;5026560;28;20280;-80
2020/12/28 00:18:01;;;;;;;7.30;3.33;;;;;;;;;;5026462;28;20308;-80
2020/12/28 00:20:28;;;;;;;7.40;3.37;;;;;;;;;;5017969;28;20282;-80
2020/12/28 00:22:54;;;;;;;5.67;2.73;;;;;;;;;;5007579;28;20269;-80
2020/12/28 00:25:22;;;;;;;4.20;2.10;;;;;;;;;;5013965;28;20276;-80
2020/12/28 00:27:48;;;;;;;5.23;1.83;;;;;;;;;;5026426;28;20280;-80
2020/12/28 00:30:14;;;;;;;3.50;1.67;;;;;;;;;;5013048;28;20823;-80
2020/12/28 00:32:40;;;;;;;5.50;1.63;;;;;;;;;;5027186;28;20341;-80
2020/12/28 00:35:07;;;;;;;4.07;1.50;;;;;;;;;;5036282;28;20284;-79
2020/12/28 00:37:34;;;;;;;7.30;1.70;;;;;;;;;;5031938;28;20344;-80
2020/12/28 00:40:00;;;;;;;3.47;1.60;;;;;;;;;;5025157;28;20871;-80
2020/12/28 00:42:26;;;;;;;2.47;1.40;;;;;;;;;;5025740;28;20728;-79
2020/12/28 00:44:52;;;;;;;2.03;1.07;;;;;;;;;;5028306;28;20356;-80
2020/12/28 00:47:18;;;;;;;3.17;1.10;;;;;;;;;;5024637;28;20364;-79
2020/12/28 00:49:44;;;;;;;2.60;1.10;;;;;;;;;;5026901;28;20275;-80
2020/12/28 00:52:11;;;;;;;3.23;1.20;;;;;;;;;;5025856;28;20272;-80
2020/12/28 00:54:38;;;;;;;3.23;1.00;;;;;;;;;;5022781;28;20281;-79
2020/12/28 00:57:04;;;;;;;2.70;1.00;;;;;;;;;;5043721;28;20339;-80
2020/12/28 00:59:30;;;;;;;1.83;0.70;;;;;;;;;;5021359;28;20261;-79
2020/12/28 01:02:00;;;;;;;3.90;1.73;;;;;;;;;;5021001;28;20277;-79
2020/12/28 01:04:26;;;;;;;2.97;1.13;;;;;;;;;;5038537;28;20368;-80
2020/12/28 01:06:52;;;;;;;2.33;1.00;;;;;;;;;;5020677;28;20377;-82
2020/12/28 01:09:19;;;;;;;2.80;1.00;;;;;;;;;;5032221;28;20265;-80
2020/12/28 01:11:46;;;;;;;2.83;0.90;;;;;;;;;;5035480;28;20320;-79
2020/12/28 01:14:12;;;;;;;1.70;0.50;;;;;;;;;;5022965;28;20296;-79
2020/12/28 01:16:39;;;;;;;2.40;0.60;;;;;;;;;;5014575;28;20041;-79
2020/12/28 01:19:05;;;;;;;1.07;0.40;;;;;;;;;;5034787;28;20041;-78
2020/12/28 01:21:31;;;;;;;0.73;0.53;;;;;;;;;;5038819;28;20041;-79
2020/12/28 01:23:57;;;;;;;1.20;0.40;;;;;;;;;;5031431;28;20378;-79
2020/12/28 01:26:23;;;;;;;2.43;0.90;;;;;;;;;;5042077;28;20081;-79
2020/12/28 01:28:50;;;;;;;2.60;0.93;;;;;;;;;;5033958;28;20034;-78
2020/12/28 01:31:16;;;;;;;3.07;1.47;;;;;;;;;;5034402;28;20023;-78
2020/12/28 01:33:42;;;;;;;4.07;1.77;;;;;;;;;;5027422;28;20277;-79
2020/12/28 01:36:09;;;;;;;5.07;2.13;;;;;;;;;;5028846;28;20256;-79
2020/12/28 01:38:36;;;;;;;4.97;2.53;;;;;;;;;;5028259;28;20281;-79
2020/12/28 01:41:03;;;;;;;5.73;2.90;;;;;;;;;;5025919;28;20269;-81
2020/12/28 01:43:29;;;;;;;9.90;3.50;;;;;;;;;;5025398;28;20261;-79
2020/12/28 01:45:56;;;;;;;6.50;3.60;;;;;;;;;;5036326;28;20340;-80
2020/12/28 01:48:22;;;;;;;10.30;3.77;;;;;;;;;;5023126;28;20269;-79
2020/12/28 01:50:48;;;;;;;6.53;3.37;;;;;;;;;;5022086;28;20719;-79
2020/12/28 01:53:16;;;;;;;7.73;3.43;;;;;;;;;;5034549;28;20271;-78
2020/12/28 01:55:43;;;;;;;6.67;3.83;;;;;;;;;;5031437;28;20348;-80
2020/12/28 01:58:09;;;;;;;9.30;3.87;;;;;;;;;;5035222;28;20289;-80
2020/12/28 02:00:35;;;;;;;7.70;3.80;;;;;;;;;;5035324;28;20348;-78
2020/12/28 02:03:02;;;;;;;7.03;3.67;;;;;;;;;;5028374;28;20360;-80
2020/12/28 02:05:28;;;;;;;9.27;4.23;;;;;;;;;;5036905;28;20274;-78
2020/12/28 02:07:55;;;;;;;9.07;4.57;;;;;;;;;;5037205;28;20293;-79
2020/12/28 02:10:21;;;;;;;9.37;4.07;;;;;;;;;;5004645;28;20342;-79
2020/12/28 02:12:47;;;;;;;8.93;4.80;;;;;;;;;;5019084;28;20285;-79
2020/12/28 02:15:13;;;;;;;5.93;3.10;;;;;;;;;;5023607;28;20288;-79
2020/12/28 02:17:39;;;;;;;8.57;5.10;;;;;;;;;;5022534;28;20293;-80
2020/12/28 02:20:05;;;;;;;7.33;3.60;;;;;;;;;;5019497;28;20281;-79
2020/12/28 02:22:31;;;;;;;6.40;4.07;;;;;;;;;;5003896;28;20272;-79
2020/12/28 02:24:57;;;;;;;7.80;3.87;;;;;;;;;;5019411;28;20252;-80
2020/12/28 02:27:24;;;;;;;9.13;4.00;;;;;;;;;;5022790;28;20280;-78
2020/12/28 02:29:50;;;;;;;8.37;3.97;;;;;;;;;;5007689;28;20285;-80
2020/12/28 02:32:16;;;;;;;7.30;3.20;;;;;;;;;;5018669;28;20613;-80
2020/12/28 02:34:42;;;;;;;9.20;4.30;;;;;;;;;;5020145;28;20281;-80
2020/12/28 02:37:08;;;;;;;6.80;4.03;;;;;;;;;;5020120;28;20293;-80
2020/12/28 02:39:34;;;;;;;11.17;5.43;;;;;;;;;;5023389;28;20281;-78
2020/12/28 02:42:00;;;;;;;8.97;4.60;;;;;;;;;;5022770;28;20352;-80
2020/12/28 02:44:26;;;;;;;8.57;4.33;;;;;;;;;;5022116;28;20284;-81
2020/12/28 02:46:52;;;;;;;12.60;5.47;;;;;;;;;;5021049;28;20257;-79
2020/12/28 02:49:18;;;;;;;10.00;5.60;;;;;;;;;;5021747;28;20288;-79
2020/12/28 02:51:45;;;;;;;8.73;4.80;;;;;;;;;;5020523;28;20332;-79
2020/12/28 02:54:11;;;;;;;8.97;4.93;;;;;;;;;;5014986;28;20281;-79
2020/12/28 02:56:37;;;;;;;9.07;4.77;;;;;;;;;;5020837;28;20280;-80
2020/12/28 02:59:03;;;;;;;11.40;5.20;;;;;;;;;;5019005;28;20303;-79
2020/12/28 03:01:29;;;;;;;8.37;4.63;;;;;;;;;;5009218;28;20307;-80
2020/12/28 03:03:55;;;;;;;8.67;4.60;;;;;;;;;;4995005;28;20360;-79
2020/12/28 03:06:21;;;;;;;8.30;4.10;;;;;;;;;;5006711;28;20271;-80
2020/12/28 03:08:47;;;;;;;11.57;4.77;;;;;;;;;;5007339;28;20795;-79
2020/12/28 03:11:13;;;;;;;9.37;4.40;;;;;;;;;;4991216;28;20277;-78
2020/12/28 03:13:39;;;;;;;9.37;4.93;;;;;;;;;;5011659;28;21112;-79
2020/12/28 03:16:06;;;;;;;10.60;5.80;;;;;;;;;;5023662;28;20268;-79
2020/12/28 03:18:32;;;;;;;11.13;4.73;;;;;;;;;;5022843;28;20295;-80
2020/12/28 03:20:58;;;;;;;9.40;5.57;;;;;;;;;;5018672;28;20272;-79
2020/12/28 03:23:24;;;;;;;9.47;5.43;;;;;;;;;;5025206;28;20249;-79
2020/12/28 03:25:50;;;;;;;10.00;5.30;;;;;;;;;;5034288;28;20268;-79
2020/12/28 03:28:16;;;;;;;9.80;5.50;;;;;;;;;;5026561;28;20288;-79
2020/12/28 03:30:42;;;;;;;9.67;5.63;;;;;;;;;;5018552;28;20273;-78
2020/12/28 03:33:08;;;;;;;10.47;4.67;;;;;;;;;;5024722;28;20846;-80
2020/12/28 03:35:34;;;;;;;10.93;5.10;;;;;;;;;;5025423;28;20271;-79
2020/12/28 03:38:00;;;;;;;9.50;5.00;;;;;;;;;;5024133;28;20288;-81
2020/12/28 03:40:26;;;;;;;8.43;4.63;;;;;;;;;;5025917;28;20275;-79
2020/12/28 03:42:52;;;;;;;10.43;5.50;;;;;;;;;;5025142;28;20269;-80
2020/12/28 03:45:19;;;;;;;12.67;5.10;;;;;;;;;;5027511;28;20281;-78
2020/12/28 03:47:45;;;;;;;8.80;5.50;;;;;;;;;;5010308;28;20268;-80
2020/12/28 03:50:11;;;;;;;9.60;5.10;;;;;;;;;;5018310;28;20332;-80
2020/12/28 03:52:39;;;;;;;8.47;4.50;;;;;;;;;;5030241;28;20268;-80
2020/12/28 03:55:06;;;;;;;12.70;5.43;;;;;;;;;;5027655;28;20284;-79
2020/12/28 03:57:32;;;;;;;8.50;4.73;;;;;;;;;;5030304;28;20433;-80
2020/12/28 03:59:58;;;;;;;10.97;5.30;;;;;;;;;;5030751;28;20280;-79
2020/12/28 04:02:24;;;;;;;9.47;4.27;;;;;;;;;;5027070;28;20280;-80
2020/12/28 04:04:50;;;;;;;8.63;4.40;;;;;;;;;;5027472;28;20321;-80
2020/12/28 04:07:16;;;;;;;9.10;4.60;;;;;;;;;;5037838;28;20491;-80
2020/12/28 04:09:43;;;;;;;7.87;4.40;;;;;;;;;;5025211;28;20916;-79
2020/12/28 04:12:09;;;;;;;7.73;4.63;;;;;;;;;;5024733;28;20292;-80
2020/12/28 04:14:35;;;;;;;8.73;4.13;;;;;;;;;;5023629;28;20307;-79
2020/12/28 04:17:01;;;;;;;14.07;6.60;;;;;;;;;;5023401;28;20927;-80
2020/12/28 04:19:27;;;;;;;11.27;4.93;;;;;;;;;;5023782;28;20260;-80
2020/12/28 04:21:53;;;;;;;11.63;6.37;;;;;;;;;;5023517;28;20276;-80
2020/12/28 04:24:19;;;;;;;9.70;5.33;;;;;;;;;;5021610;28;20284;-79
2020/12/28 04:26:45;;;;;;;23.30;11.30;;;;;;;;;;5023540;28;20593;-79
2020/12/28 04:29:12;;;;;;;28.40;13.97;;;;;;;;;;5024807;28;20257;-79
2020/12/28 04:31:39;;;;;;;14.03;8.17;;;;;;;;;;5023982;28;20269;-79
2020/12/28 04:34:05;;;;;;;16.23;7.97;;;;;;;;;;5021634;28;20276;-80
2020/12/28 04:36:31;;;;;;;20.87;9.93;;;;;;;;;;5023766;28;20272;-78
2020/12/28 04:38:57;;;;;;;15.23;8.43;;;;;;;;;;5023979;28;20276;-80
2020/12/28 04:41:24;;;;;;;16.77;9.33;;;;;;;;;;5024114;28;20268;-80
2020/12/28 04:43:50;;;;;;;11.53;6.33;;;;;;;;;;5008966;28;20281;-79
2020/12/28 04:46:16;;;;;;;11.27;6.10;;;;;;;;;;5003674;28;20390;-79
2020/12/28 04:48:42;;;;;;;12.47;6.33;;;;;;;;;;5004152;28;20262;-79
2020/12/28 04:51:08;;;;;;;12.37;6.53;;;;;;;;;;5020811;28;20348;-80
2020/12/28 04:53:35;;;;;;;10.13;5.93;;;;;;;;;;5020643;28;20257;-78
2020/12/28 04:56:01;;;;;;;13.37;6.80;;;;;;;;;;5024789;28;20276;-80
2020/12/28 04:58:27;;;;;;;12.07;6.43;;;;;;;;;;5027781;28;20372;-79
2020/12/28 05:00:57;;;;;;;9.60;5.17;;;;;;;;;;5037511;28;20269;-79
2020/12/28 05:03:24;;;;;;;11.23;5.90;;;;;;;;;;5013621;28;20320;-79
2020/12/28 05:05:51;;;;;;;11.70;5.63;;;;;;;;;;5017665;28;20261;-79
2020/12/28 05:08:18;;;;;;;9.73;5.23;;;;;;;;;;5023364;28;20265;-79
2020/12/28 05:10:44;;;;;;;10.30;6.00;;;;;;;;;;5023076;28;20285;-80
2020/12/28 05:13:11;;;;;;;13.50;6.20;;;;;;;;;;5020248;28;20289;-78
2020/12/28 05:15:46;;;;;;;13.53;6.13;;;;;;;;;;5046444;28;20691;-79
2020/12/28 05:18:14;;;;;;;9.60;5.00;;;;;;;;;;5022603;28;20293;-79
2020/12/28 05:20:42;;;;;;;9.90;5.17;;;;;;;;;;5017750;28;20285;-80
2020/12/28 05:23:08;;;;;;;9.57;4.90;;;;;;;;;;5003020;28;20278;-80
2020/12/28 05:25:35;;;;;;;11.93;5.63;;;;;;;;;;5022061;28;20273;-79
2020/12/28 05:28:02;;;;;;;11.50;5.43;;;;;;;;;;5021388;28;20672;-78
2020/12/28 05:30:30;;;;;;;10.27;5.53;;;;;;;;;;5018475;28;20289;-80
2020/12/28 05:33:01;;;;;;;12.40;5.83;;;;;;;;;;5019404;28;20273;-79
2020/12/28 05:35:28;;;;;;;10.63;6.27;;;;;;;;;;5021847;28;20332;-79
2020/12/28 05:37:54;;;;;;;9.53;4.83;;;;;;;;;;5019823;28;20293;-77
2020/12/28 05:40:22;;;;;;;10.43;5.93;;;;;;;;;;5011324;28;20304;-78
2020/12/28 05:42:49;;;;;;;10.23;5.13;;;;;;;;;;5023140;28;20277;-80
2020/12/28 05:45:16;;;;;;;9.43;4.67;;;;;;;;;;5021523;28;20288;-80
2020/12/28 05:47:42;;;;;;;10.60;5.10;;;;;;;;;;5013166;28;20273;-78
2020/12/28 05:50:09;;;;;;;8.40;5.03;;;;;;;;;;5023644;28;20277;-79
2020/12/28 05:52:37;;;;;;;9.23;5.43;;;;;;;;;;5023006;28;20269;-80
2020/12/28 05:55:04;;;;;;;10.30;6.13;;;;;;;;;;5021352;28;20277;-79
2020/12/28 05:57:30;;;;;;;12.10;5.33;;;;;;;;;;5004015;28;20293;-79
2020/12/28 05:59:56;;;;;;;9.93;5.93;;;;;;;;;;5007064;28;20830;-79
2020/12/28 06:02:25;;;;;;;11.73;5.77;;;;;;;;;;5021282;28;20295;-80
2020/12/28 06:04:53;;;;;;;9.13;6.53;;;;;;;;;;5020984;28;20818;-78
2020/12/28 06:07:21;;;;;;;12.87;5.57;;;;;;;;;;5020189;28;20253;-79
2020/12/28 06:09:53;;;;;;;9.67;5.40;;;;;;;;;;5020205;28;20272;-78
2020/12/28 06:12:19;;;;;;;11.23;4.60;;;;;;;;;;5015684;28;20295;-79
2020/12/28 06:14:45;;;;;;;8.63;4.93;;;;;;;;;;5020441;28;20724;-80
2020/12/28 06:17:12;;;;;;;8.47;4.53;;;;;;;;;;5019930;28;20285;-79
2020/12/28 06:19:39;;;;;;;8.23;4.23;;;;;;;;;;5019707;28;20300;-79
2020/12/28 06:22:25;;;;;;;8.00;4.43;;;;;;;;;;5021452;28;20338;-79
2020/12/28 06:24:57;;;;;;;9.67;5.30;;;;;;;;;;5020068;28;20273;-79
2020/12/28 06:27:29;;;;;;;8.13;4.77;;;;;;;;;;5017120;28;20292;-79
2020/12/28 06:30:06;;;;;;;10.57;5.60;;;;;;;;;;5006832;28;20711;-80
2020/12/28 06:32:32;;;;;;;10.17;6.10;;;;;;;;;;5021427;28;20257;-79
2020/12/28 06:35:02;;;;;;;10.30;5.30;;;;;;;;;;5020873;28;20296;-80
2020/12/28 06:37:28;;;;;;;10.23;4.93;;;;;;;;;;5005924;28;20286;-80
2020/12/28 06:39:58;;;;;;;12.27;5.03;;;;;;;;;;5021084;28;20296;-79
2020/12/28 06:42:24;;;;;;;8.53;5.03;;;;;;;;;;5022433;28;20263;-80
2020/12/28 06:44:51;;;;;;;8.93;4.57;;;;;;;;;;5022134;28;20356;-78
2020/12/28 06:47:18;;;;;;;8.17;5.10;;;;;;;;;;5016821;28;20281;-78
2020/12/28 06:49:44;;;;;;;8.33;4.93;;;;;;;;;;5036696;28;20360;-79
2020/12/28 06:52:11;;;;;;;11.40;5.33;;;;;;;;;;5020822;28;20280;-79
2020/12/28 06:54:37;;;;;;;10.27;6.23;;;;;;;;;;5017518;28;20285;-80
2020/12/28 06:57:04;;;;;;;11.73;6.47;;;;;;;;;;5036317;28;20350;-79
2020/12/28 06:59:31;;;;;;;10.63;5.63;;;;;;;;;;5039146;28;20301;-80
2020/12/28 07:01:58;;;;;;;8.70;5.40;;;;;;;;;;5025801;28;20333;-81
2020/12/28 07:04:25;;;;;;;11.00;6.23;;;;;;;;;;5024863;28;20348;-80
2020/12/28 07:07:00;;;;;;;10.80;5.97;;;;;;;;;;5030686;28;20312;-81
2020/12/28 07:09:26;;;;;;;11.77;6.50;;;;;;;;;;5035771;28;20273;-80
2020/12/28 07:11:52;;;;;;;10.53;5.73;;;;;;;;;;5021583;28;20304;-80
2020/12/28 07:14:20;;;;;;;10.57;6.33;;;;;;;;;;5019580;28;20284;-79
2020/12/28 07:16:46;;;;;;;14.33;7.07;;;;;;;;;;5013504;28;20284;-81
2020/12/28 07:19:13;;;;;;;12.30;7.40;;;;;;;;;;5014266;28;20269;-81
2020/12/28 07:21:39;;;;;;;14.43;7.47;;;;;;;;;;5014044;28;20265;-82
2020/12/28 07:24:06;;;;;;;10.90;7.00;;;;;;;;;;5010386;28;20276;-81
2020/12/28 07:26:33;;;;;;;12.57;7.77;;;;;;;;;;5014837;28;20879;-81
2020/12/28 07:28:59;;;;;;;12.40;7.70;;;;;;;;;;5014936;28;20924;-79
2020/12/28 07:31:25;;;;;;;13.03;7.50;;;;;;;;;;5007619;28;20281;-80
2020/12/28 07:33:57;;;;;;;15.70;8.43;;;;;;;;;;5008541;28;20284;-80
2020/12/28 07:36:25;;;;;;;12.13;7.10;;;;;;;;;;5015214;28;20326;-80
2020/12/28 07:38:51;;;;;;;11.93;7.10;;;;;;;;;;5017627;28;20292;-79
2020/12/28 07:41:19;;;;;;;13.90;8.57;;;;;;;;;;5018215;28;20269;-78
2020/12/28 07:43:52;;;;;;;11.53;7.43;;;;;;;;;;5027193;28;20320;-79
2020/12/28 07:46:29;;;;;;;13.82;8.05;;;;;;;;;;5026671;28;20276;-80
2020/12/28 07:48:57;;;;;;;9.10;6.23;;;;;;;;;;5008629;28;20038;-79
2020/12/28 07:51:25;;;;;;;9.27;5.53;;;;;;;;;;5016558;28;20291;-80
2020/12/28 07:53:53;;;;;;;14.23;7.03;;;;;;;;;;5018685;28;20277;-79
2020/12/28 07:56:38;;;;;;;10.97;6.93;;;;;;;;;;5018163;28;20712;-80
2020/12/28 07:59:12;;;;;;;11.43;7.20;;;;;;;;;;5015119;28;20882;-81
2020/12/28 08:01:41;;;;;;;15.27;7.97;;;;;;;;;;5038708;28;20289;-81
2020/12/28 08:04:10;;;;;;;11.87;7.80;;;;;;;;;;5017236;28;20281;-79
2020/12/28 08:06:36;;;;;;;12.43;7.67;;;;;;;;;;5015999;28;20276;-81
2020/12/28 08:09:03;;;;;;;13.07;8.33;;;;;;;;;;5017380;28;20292;-79
2020/12/28 08:11:30;;;;;;;12.43;8.03;;;;;;;;;;5021476;28;20304;-79
2020/12/28 08:13:57;;;;;;;15.97;9.07;;;;;;;;;;5031873;28;20339;-80
2020/12/28 08:16:23;;;;;;;12.73;8.10;;;;;;;;;;5014546;28;20281;-80
2020/12/28 08:18:50;;;;;;;13.37;7.53;;;;;;;;;;5017184;28;20628;-81
2020/12/28 08:21:17;;;;;;;12.40;8.27;;;;;;;;;;5020069;28;20260;-79
2020/12/28 08:23:53;;;;;;;14.50;8.33;;;;;;;;;;5019435;28;20289;-80
2020/12/28 08:26:20;;;;;;;16.33;9.50;;;;;;;;;;5001846;28;20296;-81
2020/12/28 08:28:50;;;;;;;23.23;11.87;;;;;;;;;;5004394;28;20273;-80
2020/12/28 08:31:24;;;;;;;16.67;8.00;;;;;;;;;;5016233;28;20304;-80
2020/12/28 08:33:58;;;;;;;11.02;7.18;;;;;;;;;;5020171;28;20304;-81
2020/12/28 08:36:24;;;;;;;;;;;;;;;;;;5027151;28;20049;-80
2020/12/28 08:38:50;;;;;;;11.77;6.00;;;;;;;;;;5023754;28;20530;-81
2020/12/28 08:41:16;;;;;;;14.57;6.30;;;;;;;;;;5022026;28;20265;-80
2020/12/28 08:43:49;;;;;;;12.93;7.53;;;;;;;;;;5021413;28;20296;-79
2020/12/28 08:46:15;;;;;;;14.77;7.50;;;;;;;;;;5018554;28;20831;-81
2020/12/28 08:48:42;;;;;;;12.63;7.70;;;;;;;;;;5019873;28;20273;-78
2020/12/28 08:51:15;;;;;;;14.40;8.53;;;;;;;;;;5022053;28;20348;-79
2020/12/28 08:53:45;;;;;;;17.33;9.50;;;;;;;;;;5020476;28;20285;-81
2020/12/28 08:56:11;;;;;;;19.27;9.60;;;;;;;;;;5018627;28;20066;-81
2020/12/28 08:58:37;;;;;;;19.70;12.43;;;;;;;;;;5018274;28;20304;-81
2020/12/28 09:01:04;;;;;;;27.70;12.77;;;;;;;;;;5023255;28;20375;-81
2020/12/28 09:03:31;;;;;;;21.43;10.97;;;;;;;;;;5027761;28;20272;-80
2020/12/28 09:05:58;;;;;;;15.37;10.57;;;;;;;;;;5032308;28;20268;-78
2020/12/28 09:08:24;;;;;;;18.87;9.83;;;;;;;;;;5036111;28;20299;-81
2020/12/28 09:10:50;;;;;;;13.50;8.60;;;;;;;;;;5018063;28;20273;-80
2020/12/28 09:13:16;;;;;;;18.63;10.70;;;;;;;;;;4997350;28;20266;-79
2020/12/28 09:15:42;;;;;;;17.17;9.53;;;;;;;;;;5001994;28;20423;-78
2020/12/28 09:18:08;;;;;;;14.17;8.30;;;;;;;;;;5018704;28;20297;-79
2020/12/28 09:20:34;;;;;;;14.93;9.50;;;;;;;;;;5016953;28;20288;-79
2020/12/28 09:23:00;;;;;;;18.30;10.60;;;;;;;;;;5015748;28;20277;-78
2020/12/28 09:25:26;;;;;;;23.53;14.47;;;;;;;;;;5024101;28;20264;-79
2020/12/28 09:27:52;;;;;;;23.27;12.30;;;;;;;;;;5025056;28;20318;-79
2020/12/28 09:30:18;;;;;;;21.80;10.43;;;;;;;;;;5017546;28;20295;-79
2020/12/28 09:32:46;;;;;;;24.47;12.77;;;;;;;;;;5023609;28;20260;-78
2020/12/28 09:35:12;;;;;;;24.87;15.53;;;;;;;;;;5024889;28;20273;-79
2020/12/28 09:37:38;;;;;;;25.07;16.80;;;;;;;;;;5020672;28;21282;-79
2020/12/28 09:40:07;;;;;;;24.10;14.90;;;;;;;;;;5015053;28;20363;-79
2020/12/28 09:42:33;;;;;;;29.63;17.40;;;;;;;;;;5008607;28;20286;-80
2020/12/28 09:45:00;;;;;;;27.13;16.37;;;;;;;;;;5008608;28;20269;-80
2020/12/28 09:47:27;;;;;;;21.37;14.17;;;;;;;;;;5015432;28;21220;-79
2020/12/28 09:49:53;;;;;;;21.57;13.63;;;;;;;;;;5013195;28;20648;-79
2020/12/28 09:52:19;;;;;;;20.27;12.70;;;;;;;;;;5013747;28;20779;-78
2020/12/28 09:54:45;;;;;;;18.10;12.50;;;;;;;;;;5015476;28;20388;-79
2020/12/28 09:57:12;;;;;;;29.70;16.93;;;;;;;;;;5013563;28;20784;-80
2020/12/28 09:59:39;;;;;;;51.73;28.07;;;;;;;;;;5012378;28;20281;-79
2020/12/28 10:02:06;;;;;;;43.17;23.67;;;;;;;;;;5011568;28;20296;-79
2020/12/28 10:04:32;;;;;;;32.70;19.07;;;;;;;;;;5012417;28;20273;-77
2020/12/28 10:06:58;;;;;;;24.87;15.20;;;;;;;;;;5014366;28;20787;-78
2020/12/28 10:09:24;;;;;;;22.00;13.17;;;;;;;;;;5013345;28;20356;-78
2020/12/28 10:11:50;;;;;;;17.97;13.13;;;;;;;;;;4996039;28;20445;-78
2020/12/28 10:14:17;;;;;;;20.93;14.13;;;;;;;;;;4992332;28;20265;-78
2020/12/28 10:16:43;;;;;;;17.07;10.50;;;;;;;;;;4989723;28;20027;-77
2020/12/28 10:19:09;;;;;;;15.43;10.10;;;;;;;;;;4991103;28;20038;-77
2020/12/28 10:21:35;;;;;;;14.23;8.80;;;;;;;;;;4996865;28;20308;-78
2020/12/28 10:24:03;;;;;;;22.50;11.97;;;;;;;;;;5013081;28;20343;-78
2020/12/28 10:26:29;;;;;;;15.47;10.43;;;;;;;;;;5015051;28;20419;-78
2020/12/28 10:28:57;;;;;;;15.67;10.43;;;;;;;;;;5016757;28;20280;-78
2020/12/28 10:31:23;;;;;;;14.67;9.67;;;;;;;;;;5014835;28;20026;-78
2020/12/28 10:33:50;;;;;;;16.57;11.20;;;;;;;;;;5014167;28;20268;-78
2020/12/28 10:36:17;;;;;;;14.57;9.00;;;;;;;;;;5019888;28;20492;-78
2020/12/28 10:38:44;;;;;;;21.77;13.37;;;;;;;;;;5021224;28;20288;-77
2020/12/28 10:41:10;;;;;;;14.63;9.50;;;;;;;;;;5020082;28;20359;-78
2020/12/28 10:43:36;;;;;;;13.80;8.97;;;;;;;;;;5019701;28;20356;-78
2020/12/28 10:46:05;;;;;;;14.23;9.50;;;;;;;;;;5011702;28;20301;-77
2020/12/28 10:48:31;;;;;;;24.40;13.70;;;;;;;;;;5018492;28;20939;-77
2020/12/28 10:50:57;;;;;;;19.30;10.83;;;;;;;;;;5029647;28;20273;-77
2020/12/28 10:53:23;;;;;;;16.30;11.50;;;;;;;;;;5026100;28;20399;-77
2020/12/28 10:55:49;;;;;;;20.63;12.30;;;;;;;;;;5026133;28;20311;-78
2020/12/28 10:58:16;;;;;;;21.53;12.97;;;;;;;;;;5013387;28;20791;-77
2020/12/28 11:00:42;;;;;;;20.07;10.50;;;;;;;;;;5015680;28;20271;-77
2020/12/28 11:03:08;;;;;;;20.13;12.63;;;;;;;;;;4994201;28;20274;-78
2020/12/28 11:05:35;;;;;;;29.70;17.53;;;;;;;;;;4992916;28;20258;-77
2020/12/28 11:08:01;;;;;;;21.70;12.10;;;;;;;;;;5012757;28;20281;-77
2020/12/28 11:10:27;;;;;;;13.57;7.60;;;;;;;;;;5013397;28;20318;-77
2020/12/28 11:12:53;;;;;;;14.30;8.20;;;;;;;;;;5011631;28;20752;-77
2020/12/28 11:15:19;;;;;;;14.40;7.20;;;;;;;;;;5011973;28;20310;-77
2020/12/28 11:17:45;;;;;;;10.20;6.33;;;;;;;;;;5011634;28;20339;-77
2020/12/28 11:20:12;;;;;;;11.97;6.80;;;;;;;;;;5007937;28;20315;-77
2020/12/28 11:22:38;;;;;;;11.50;5.73;;;;;;;;;;5010065;28;20265;-79
2020/12/28 11:25:04;;;;;;;14.90;7.90;;;;;;;;;;5012677;28;20268;-77
2020/12/28 11:27:31;;;;;;;9.03;5.00;;;;;;;;;;5012375;28;20287;-77
2020/12/28 11:29:58;;;;;;;12.97;6.77;;;;;;;;;;5006990;28;20268;-77
2020/12/28 11:32:24;;;;;;;24.87;10.87;;;;;;;;;;5017877;28;20277;-78
2020/12/28 11:34:51;;;;;;;16.03;8.30;;;;;;;;;;5023425;28;20347;-78
2020/12/28 11:37:20;;;;;;;23.90;9.63;;;;;;;;;;5024928;28;20307;-79
2020/12/28 11:39:48;;;;;;;21.67;9.97;;;;;;;;;;5021955;28;20276;-78
2020/12/28 12:37:09;;;;;;;;;;;;;;;;;;;;;
2020/12/28 12:40:10;;;;;;;13.80;7.57;;;;;;;;;;5003100;28;20493;-77
2020/12/28 12:52:18;;;;;;;25.48;10.35;;;;;;;;;;5006128;28;20931;-78
2020/12/28 12:55:15;;;;;;;14.63;7.07;;;;;;;;;;5000820;28;20437;-78
2020/12/28 12:58:02;;;;;;;;;;;;;;;;;;;;;
2020/12/28 13:00:43;;;;;;;10.77;5.67;;;;;;;;;;5011883;28;20014;-78
2020/12/28 13:03:48;;;;;;;13.13;6.30;;;;;;;;;;4998960;28;20319;-78
2020/12/28 13:06:25;;;;;;;13.83;7.00;;;;;;;;;;4932947;29;20039;-79
2020/12/28 13:14:53;;;;;;;9.27;4.00;;;;;;;;;;5016528;28;20065;-78
2020/12/28 13:20:51;;;;;;;;;;;;;;;;;;;;;
2020/12/28 13:27:03;;;;;;;;;;;;;;;;;;;;;
2020/12/28 13:48:44;;;;;;;101.60;28.97;;;;;;;;;;4880899;29;20331;-76
2020/12/28 13:51:10;;;;;;;205.43;52.97;;;;;;;;;;4980172;28;20276;-77
2020/12/28 13:53:36;;;;;;;93.13;25.47;;;;;;;;;;4999274;28;20820;-78
2020/12/28 13:56:14;;;;;;;61.57;19.93;;;;;;;;;;4999429;28;20277;-78
2020/12/28 13:58:40;;;;;;;5.93;2.07;;;;;;;;;;4995451;28;20288;-78
2020/12/28 14:01:08;;;;;;;17.60;5.70;;;;;;;;;;5008523;28;20249;-77
2020/12/28 14:03:36;;;;;;;36.97;10.63;;;;;;;;;;5013248;28;20269;-78
2020/12/28 14:06:02;;;;;;;10.63;3.80;;;;;;;;;;5007670;28;20265;-77
2020/12/28 14:08:28;;;;;;;9.13;3.33;;;;;;;;;;5017505;28;20283;-78
2020/12/28 14:10:54;;;;;;;7.20;3.70;;;;;;;;;;5029042;28;20339;-77
2020/12/28 14:13:20;;;;;;;12.33;5.40;;;;;;;;;;5009309;28;20273;-77
2020/12/28 14:15:46;;;;;;;23.63;9.63;;;;;;;;;;5017610;28;20276;-77
2020/12/28 14:18:12;;;;;;;13.50;6.27;;;;;;;;;;5019095;28;20292;-78
2020/12/28 14:20:38;;;;;;;18.23;10.20;;;;;;;;;;5014396;28;20257;-77
2020/12/28 14:23:05;;;;;;;12.40;6.80;;;;;;;;;;5015124;28;20257;-77
2020/12/28 14:25:32;;;;;;;11.40;5.60;;;;;;;;;;5008793;28;20704;-78
2020/12/28 14:27:58;;;;;;;11.97;7.97;;;;;;;;;;4987163;28;20325;-77
2020/12/28 14:30:24;;;;;;;11.90;9.73;;;;;;;;;;4988899;28;20345;-77
2020/12/28 14:32:51;;;;;;;8.20;6.57;;;;;;;;;;5003449;28;20257;-77
2020/12/28 14:35:17;;;;;;;8.13;5.77;;;;;;;;;;5004389;28;20338;-76
2020/12/28 14:37:43;;;;;;;8.17;5.13;;;;;;;;;;5017235;28;20640;-77
2020/12/28 14:40:09;;;;;;;11.57;6.37;;;;;;;;;;5019609;28;20297;-79
2020/12/28 14:42:35;;;;;;;7.93;4.53;;;;;;;;;;5016582;28;20288;-77
2020/12/28 14:45:01;;;;;;;9.40;4.20;;;;;;;;;;5002685;28;20273;-77
2020/12/28 14:47:27;;;;;;;6.37;2.87;;;;;;;;;;5007435;28;20364;-77
2020/12/28 14:49:53;;;;;;;5.70;3.00;;;;;;;;;;5007121;28;20257;-77
2020/12/28 14:52:20;;;;;;;8.67;3.77;;;;;;;;;;5007602;28;20292;-77
2020/12/28 14:54:46;;;;;;;9.70;4.97;;;;;;;;;;5005002;28;20276;-77
2020/12/28 14:57:13;;;;;;;10.80;5.07;;;;;;;;;;4988860;28;20613;-77
2020/12/28 14:59:39;;;;;;;12.17;6.40;;;;;;;;;;5003625;28;20261;-77
2020/12/28 15:02:05;;;;;;;18.10;10.47;;;;;;;;;;5005000;28;20342;-76
2020/12/28 15:04:31;;;;;;;16.13;9.23;;;;;;;;;;5006018;28;20937;-77
2020/12/28 15:06:57;;;;;;;13.10;8.13;;;;;;;;;;5007070;28;20268;-77
2020/12/28 15:09:23;;;;;;;13.43;8.43;;;;;;;;;;5028481;28;20277;-77
2020/12/28 15:11:49;;;;;;;13.60;7.33;;;;;;;;;;5014283;28;20442;-76
2020/12/28 15:14:15;;;;;;;28.13;15.70;;;;;;;;;;5023904;28;20358;-78
2020/12/28 15:16:41;;;;;;;31.83;20.53;;;;;;;;;;5006477;28;20281;-76
2020/12/28 15:19:07;;;;;;;20.87;12.07;;;;;;;;;;4998662;28;20335;-77
2020/12/28 15:21:34;;;;;;;11.03;7.03;;;;;;;;;;5005330;28;20260;-76
2020/12/28 15:24:00;;;;;;;10.97;7.33;;;;;;;;;;5022696;28;20767;-77
2020/12/28 15:26:26;;;;;;;7.77;4.90;;;;;;;;;;5012343;28;20277;-77
2020/12/28 15:28:53;;;;;;;9.03;5.70;;;;;;;;;;5014918;28;20768;-77
2020/12/28 15:31:19;;;;;;;7.70;4.33;;;;;;;;;;5006338;28;20407;-77
2020/12/28 15:33:46;;;;;;;7.03;4.10;;;;;;;;;;5008470;28;20339;-77
2020/12/28 15:36:12;;;;;;;9.30;5.13;;;;;;;;;;5021117;28;20295;-79
2020/12/28 15:38:38;;;;;;;9.93;5.53;;;;;;;;;;5023838;28;20292;-78
2020/12/28 15:41:04;;;;;;;10.03;5.00;;;;;;;;;;5026505;28;20264;-77
2020/12/28 15:43:31;;;;;;;6.30;3.03;;;;;;;;;;5010027;28;20323;-77
2020/12/28 15:45:57;;;;;;;7.20;2.93;;;;;;;;;;5022201;28;20269;-76
2020/12/28 15:48:23;;;;;;;4.13;2.30;;;;;;;;;;5032356;28;20351;-76
2020/12/28 15:50:52;;;;;;;5.83;2.37;;;;;;;;;;5026108;28;20265;-77
2020/12/28 15:53:18;;;;;;;2.60;1.17;;;;;;;;;;5026900;28;20334;-76
2020/12/28 15:55:46;;;;;;;5.33;2.00;;;;;;;;;;5007054;28;20265;-77
2020/12/28 15:58:12;;;;;;;5.20;2.20;;;;;;;;;;5008593;28;20337;-79
2020/12/28 16:00:38;;;;;;;3.03;1.43;;;;;;;;;;5017742;28;20264;-76
2020/12/28 16:03:04;;;;;;;4.60;2.23;;;;;;;;;;5006832;28;20273;-77
2020/12/28 16:05:31;;;;;;;5.10;2.20;;;;;;;;;;5017574;28;20260;-76
2020/12/28 16:07:57;;;;;;;6.73;2.77;;;;;;;;;;5024548;28;20283;-77
2020/12/28 16:10:23;;;;;;;7.20;3.23;;;;;;;;;;5010604;28;20330;-77
2020/12/28 16:12:49;;;;;;;2.93;1.77;;;;;;;;;;5030284;28;20290;-77
2020/12/28 16:15:15;;;;;;;5.53;2.53;;;;;;;;;;5015296;28;20442;-77